Acorn, Kentucky
Current Conditions -  °F | °C
As of 5:15 AM on Monday 26 Jan 2015 (Local Time) from KSME Reporting Station
Moderate Rain Moderate Rain  
Wind Chill: 26°   Ceiling: 700
Heat Index: 34°   Visibility: 7mi
Dew Point: 34°   Wind: 10mph
Humidity: 100%   Direction: 300°WNW
Pressure: 29.74"   Gusts: 21mph
Location:  37.0813°N, 84.4741°W
Report Text: KSME 261015Z AUTO 30009G18KT 7SM RA OVC007 01/01 A2974 RMK AO2
Loading
Personal Weather Stations






























Interactive Weather Map New forecast layout! Learn more

10-Day Weather Forecast

Advertisements
Track Severe Weather on mobile